createdAt,value
2022-12-06T00:02:14.352Z,81.75
2022-12-06T00:05:18.513Z,81.59
2022-12-06T00:08:22.184Z,81.35
2022-12-06T00:11:29.738Z,80.91
2022-12-06T00:14:33.467Z,81.15
2022-12-06T00:17:42.782Z,81.40
2022-12-06T00:20:46.774Z,81.45
2022-12-06T00:23:52.599Z,81.97
2022-12-06T00:26:57.723Z,82.12
2022-12-06T00:30:01.565Z,82.43
2022-12-06T00:33:05.657Z,82.59
2022-12-06T00:36:12.853Z,83.17
2022-12-06T00:39:18.843Z,83.64
2022-12-06T00:42:23.993Z,83.89
2022-12-06T00:45:27.728Z,83.62
2022-12-06T00:48:31.724Z,83.90
2022-12-06T00:51:36.739Z,84.43
2022-12-06T00:54:40.395Z,84.19
2022-12-06T00:57:45.473Z,84.63
2022-12-06T01:00:49.370Z,84.84
2022-12-06T01:03:55.305Z,85.72
2022-12-06T01:06:58.867Z,85.45
2022-12-06T01:10:02.444Z,85.85
2022-12-06T01:13:08.415Z,85.13
2022-12-06T01:16:14.819Z,85.67
2022-12-06T01:19:18.395Z,86.25
2022-12-06T01:22:21.950Z,85.74
2022-12-06T01:25:26.443Z,85.77
2022-12-06T01:28:32.132Z,85.17
2022-12-06T01:31:38.758Z,84.38
2022-12-06T01:34:43.744Z,83.95
2022-12-06T01:37:47.264Z,84.48
2022-12-06T01:40:51.544Z,84.35
2022-12-06T01:43:57.835Z,85.17
2022-12-06T01:47:01.447Z,84.85
2022-12-06T01:50:11.590Z,85.15
2022-12-06T01:53:15.796Z,85.57
2022-12-06T01:56:20.489Z,85.19
2022-12-06T01:59:27.037Z,85.21
2022-12-06T02:02:30.747Z,84.85
2022-12-06T02:05:40.305Z,83.66
2022-12-06T02:08:45.828Z,83.88
2022-12-06T02:11:49.539Z,84.62
2022-12-06T02:14:56.932Z,86.22
2022-12-06T02:18:12.279Z,85.31
2022-12-06T02:21:24.912Z,84.70
2022-12-06T02:24:55.985Z,84.96
2022-12-06T02:28:23.102Z,84.92
2022-12-06T02:31:35.089Z,84.81
2022-12-06T02:34:46.540Z,83.83
2022-12-06T02:37:55.846Z,83.29
2022-12-06T02:41:03.120Z,83.40
2022-12-06T02:44:09.962Z,83.32
2022-12-06T02:47:16.952Z,83.50
2022-12-06T02:50:24.252Z,82.93
2022-12-06T02:53:31.383Z,83.08
2022-12-06T02:56:36.136Z,83.15
2022-12-06T02:59:39.731Z,82.85
2022-12-06T03:02:45.064Z,82.91
2022-12-06T03:06:08.666Z,83.43
2022-12-06T03:09:26.386Z,83.50
2022-12-06T03:12:36.358Z,83.31
2022-12-06T03:15:49.775Z,83.70
2022-12-06T03:19:01.222Z,83.78
2022-12-06T03:22:09.591Z,83.88
2022-12-06T03:25:14.453Z,83.61
2022-12-06T03:28:20.113Z,84.56
2022-12-06T03:31:25.761Z,84.45
2022-12-06T03:34:34.398Z,84.15
2022-12-06T03:37:40.356Z,84.08
2022-12-06T03:40:47.844Z,84.94
2022-12-06T03:43:51.465Z,84.83
2022-12-06T03:47:00.978Z,84.12
2022-12-06T03:50:11.795Z,84.54
2022-12-06T03:53:18.559Z,83.93
2022-12-06T03:56:23.710Z,84.51
2022-12-06T03:59:27.246Z,84.47
2022-12-06T04:02:30.865Z,84.57
2022-12-06T04:05:36.000Z,84.33
2022-12-06T04:08:40.138Z,84.60
2022-12-06T04:11:43.847Z,85.99
2022-12-06T04:14:47.494Z,86.28
2022-12-06T04:18:09.192Z,86.50
2022-12-06T04:21:31.943Z,86.93
2022-12-06T04:24:35.682Z,87.11
2022-12-06T04:27:56.883Z,87.33
2022-12-06T04:31:22.047Z,86.58
2022-12-06T04:34:43.707Z,86.28
2022-12-06T04:38:06.362Z,85.99
2022-12-06T04:41:10.114Z,86.72
2022-12-06T04:44:13.103Z,87.44
2022-12-06T04:47:16.914Z,87.79
2022-12-06T04:50:20.565Z,87.68
2022-12-06T04:53:25.633Z,88.01
2022-12-06T04:56:29.383Z,87.45
2022-12-06T04:59:33.134Z,88.15
2022-12-06T05:02:36.856Z,89.81
2022-12-06T05:05:40.975Z,90.91
2022-12-06T05:08:46.187Z,89.82
2022-12-06T05:11:49.854Z,89.90
2022-12-06T05:14:53.564Z,89.50
2022-12-06T05:17:57.249Z,89.94
2022-12-06T05:21:05.900Z,88.71
2022-12-06T05:24:11.464Z,88.91
2022-12-06T05:27:15.161Z,87.98
2022-12-06T05:30:19.134Z,87.52
2022-12-06T05:33:23.394Z,87.90
2022-12-06T05:36:28.696Z,87.44
2022-12-06T05:39:33.924Z,88.01
2022-12-06T05:42:37.954Z,88.07
2022-12-06T05:45:42.419Z,88.55
2022-12-06T05:48:46.234Z,87.47
2022-12-06T05:51:49.943Z,87.23
2022-12-06T05:54:55.095Z,88.50
2022-12-06T05:57:58.834Z,88.95
2022-12-06T06:01:02.684Z,89.01
2022-12-06T06:04:06.693Z,88.71
2022-12-06T06:07:10.313Z,88.26
2022-12-06T06:10:16.153Z,87.47
2022-12-06T06:13:19.794Z,88.38
2022-12-06T06:16:23.678Z,90.30
2022-12-06T06:19:27.425Z,87.92
2022-12-06T06:22:31.184Z,87.97
2022-12-06T06:25:36.304Z,87.31
2022-12-06T06:28:40.594Z,86.77
2022-12-06T06:31:44.349Z,86.94
2022-12-06T06:34:48.094Z,86.00
2022-12-06T06:37:51.823Z,85.32
2022-12-06T06:40:57.053Z,85.07
2022-12-06T06:44:00.774Z,85.30
2022-12-06T06:47:05.124Z,85.28
2022-12-06T06:50:10.017Z,84.94
2022-12-06T06:53:13.865Z,84.93
2022-12-06T06:56:20.354Z,84.24
2022-12-06T06:59:24.273Z,83.79
2022-12-06T07:02:28.098Z,83.62
2022-12-06T07:05:31.924Z,83.19
2022-12-06T07:08:36.056Z,82.53
2022-12-06T07:11:41.164Z,82.29
2022-12-06T07:14:44.845Z,82.16
2022-12-06T07:17:48.537Z,82.03
2022-12-06T07:21:01.249Z,81.99
2022-12-06T07:24:05.105Z,81.44
2022-12-06T07:27:10.593Z,82.30
2022-12-06T07:30:17.151Z,82.42
2022-12-06T07:33:21.915Z,81.77
2022-12-06T07:36:26.144Z,81.13
2022-12-06T07:39:32.276Z,80.87
2022-12-06T07:42:55.051Z,80.37
2022-12-06T07:45:58.824Z,79.87
2022-12-06T07:49:02.675Z,79.62
2022-12-06T07:52:06.476Z,80.58
2022-12-06T07:55:11.786Z,79.69
2022-12-06T07:58:16.952Z,78.83
2022-12-06T08:01:20.954Z,79.25
2022-12-06T08:04:24.921Z,78.55
2022-12-06T08:07:29.084Z,77.60
2022-12-06T08:10:32.875Z,77.13
2022-12-06T08:13:39.214Z,76.41
2022-12-06T08:16:43.163Z,76.47
2022-12-06T08:19:47.243Z,75.73
2022-12-06T08:22:50.944Z,76.36
2022-12-06T08:25:58.993Z,75.36
2022-12-06T08:29:04.272Z,75.21
2022-12-06T08:32:07.994Z,76.25
2022-12-06T08:35:11.583Z,75.10
2022-12-06T08:38:15.364Z,74.13
2022-12-06T08:41:37.493Z,73.23
2022-12-06T08:44:42.744Z,74.10
2022-12-06T08:47:46.337Z,74.47
2022-12-06T08:50:50.054Z,75.84
2022-12-06T08:53:54.733Z,75.33
2022-12-06T08:56:58.964Z,74.48
2022-12-06T09:00:06.397Z,75.77
2022-12-06T09:03:10.124Z,75.82
2022-12-06T09:06:14.314Z,75.07
2022-12-06T09:09:19.527Z,75.94
2022-12-06T09:12:23.546Z,75.26
2022-12-06T09:15:28.897Z,75.32
2022-12-06T09:18:32.994Z,75.32
2022-12-06T09:21:39.654Z,75.68
2022-12-06T09:24:43.386Z,75.42
2022-12-06T09:27:47.114Z,75.99
2022-12-06T09:30:52.551Z,75.84
2022-12-06T09:33:56.283Z,75.61
2022-12-06T09:37:05.476Z,75.54
2022-12-06T09:40:15.767Z,75.92
2022-12-06T09:43:34.234Z,76.18
2022-12-06T09:46:54.757Z,76.16
2022-12-06T09:50:13.644Z,75.86
2022-12-06T09:53:24.845Z,75.94
2022-12-06T09:56:34.804Z,75.94
2022-12-06T09:59:48.864Z,74.96
2022-12-06T10:03:16.599Z,75.28
2022-12-06T10:06:24.553Z,75.33
2022-12-06T10:09:40.063Z,76.28
2022-12-06T10:13:04.774Z,75.55
2022-12-06T10:16:17.429Z,74.79
2022-12-06T10:19:33.684Z,75.59
2022-12-06T10:22:50.864Z,75.55
2022-12-06T10:26:02.647Z,75.51
2022-12-06T10:29:17.924Z,74.72
2022-12-06T10:32:35.673Z,74.84
2022-12-06T10:35:46.204Z,74.47
2022-12-06T10:38:54.871Z,74.01
2022-12-06T10:42:04.354Z,74.32
2022-12-06T10:45:32.964Z,76.22
2022-12-06T10:48:43.724Z,75.96
2022-12-06T10:51:56.093Z,75.18
2022-12-06T10:55:06.643Z,74.77
2022-12-06T10:58:17.223Z,74.16
2022-12-06T11:01:25.510Z,73.95
2022-12-06T11:04:34.153Z,74.78
2022-12-06T11:07:45.133Z,74.40
2022-12-06T11:10:49.886Z,73.92
2022-12-06T11:13:58.333Z,74.86
2022-12-06T11:17:06.033Z,74.11
2022-12-06T11:20:24.206Z,74.34
2022-12-06T11:23:38.405Z,73.29
2022-12-06T11:26:46.436Z,73.15
2022-12-06T11:29:51.606Z,73.77
2022-12-06T11:32:56.083Z,74.18
2022-12-06T11:36:02.704Z,74.02
2022-12-06T11:39:07.904Z,75.82
2022-12-06T11:42:14.745Z,74.12
2022-12-06T11:45:23.405Z,75.46
2022-12-06T11:48:29.614Z,75.09
2022-12-06T11:51:33.447Z,75.97
2022-12-06T11:54:44.045Z,75.69
2022-12-06T11:57:54.044Z,75.67
2022-12-06T12:01:01.150Z,75.77
2022-12-06T12:04:25.833Z,76.83
2022-12-06T12:07:29.918Z,76.48
2022-12-06T12:10:38.511Z,75.62
2022-12-06T12:13:53.043Z,76.51
2022-12-06T12:17:01.600Z,77.03
2022-12-06T12:20:09.074Z,77.56
2022-12-06T12:23:20.163Z,77.26
2022-12-06T12:26:25.605Z,77.41
2022-12-06T12:29:29.644Z,76.68
2022-12-06T12:32:33.491Z,76.35
2022-12-06T12:35:39.452Z,75.71
2022-12-06T12:38:50.422Z,74.74
2022-12-06T12:41:55.713Z,75.41
2022-12-06T12:45:02.486Z,74.38
2022-12-06T12:48:24.126Z,74.71
2022-12-06T12:51:35.335Z,74.08
2022-12-06T12:54:39.333Z,72.32
2022-12-06T12:57:46.726Z,73.39
2022-12-06T13:00:51.828Z,73.64
2022-12-06T13:03:58.845Z,74.40
2022-12-06T13:07:05.704Z,73.56
2022-12-06T13:10:18.853Z,73.79
2022-12-06T13:13:28.928Z,73.98
2022-12-06T13:16:36.930Z,74.18
2022-12-06T13:19:53.039Z,73.86
2022-12-06T13:23:01.813Z,74.30
2022-12-06T13:26:19.911Z,73.89
2022-12-06T13:29:31.163Z,74.03
2022-12-06T13:32:40.353Z,74.46
2022-12-06T13:35:49.514Z,74.79
2022-12-06T13:38:53.364Z,74.60
2022-12-06T13:42:16.754Z,75.85
2022-12-06T13:45:43.559Z,76.03
2022-12-06T13:48:52.017Z,75.25
2022-12-06T13:51:55.813Z,76.42
2022-12-06T13:54:59.573Z,77.37
2022-12-06T13:58:40.974Z,77.19
2022-12-06T14:01:47.587Z,77.64
2022-12-06T14:04:51.733Z,77.67
2022-12-06T14:07:59.111Z,78.15
2022-12-06T14:11:19.444Z,77.31
2022-12-06T14:14:24.955Z,77.97
2022-12-06T14:18:01.483Z,77.45
2022-12-06T14:21:03.943Z,78.37
2022-12-06T14:24:07.985Z,78.11
2022-12-06T14:27:16.143Z,77.21
2022-12-06T14:30:25.981Z,77.66
2022-12-06T14:33:31.664Z,77.76
2022-12-06T14:36:37.038Z,78.08
2022-12-06T14:39:40.863Z,77.53
2022-12-06T14:43:02.054Z,77.21
2022-12-06T14:46:09.030Z,77.71
2022-12-06T14:49:37.796Z,77.92
2022-12-06T14:52:58.923Z,77.90
2022-12-06T14:56:05.854Z,77.91
2022-12-06T14:59:13.513Z,77.70
2022-12-06T15:02:24.128Z,77.05
2022-12-06T15:05:38.066Z,77.71
2022-12-06T15:08:43.634Z,77.41
2022-12-06T15:12:04.983Z,77.92
2022-12-06T15:15:33.055Z,76.76
2022-12-06T15:18:38.823Z,76.31
2022-12-06T15:21:44.245Z,76.41
2022-12-06T15:24:50.844Z,75.78
2022-12-06T15:27:54.677Z,76.19
2022-12-06T15:30:58.843Z,75.09
2022-12-06T15:34:02.723Z,75.23
2022-12-06T15:37:37.462Z,75.70
2022-12-06T15:40:31.704Z,75.29
2022-12-06T15:43:36.564Z,75.33
2022-12-06T15:46:41.051Z,75.18
2022-12-06T15:49:45.687Z,74.69
2022-12-06T15:52:50.907Z,74.99
2022-12-06T15:55:55.117Z,74.36
2022-12-06T15:58:58.883Z,74.92
2022-12-06T16:02:02.881Z,74.24
2022-12-06T16:05:07.297Z,74.14
2022-12-06T16:08:13.409Z,73.93
2022-12-06T16:11:19.358Z,74.36
2022-12-06T16:14:22.925Z,73.98
2022-12-06T16:17:26.625Z,73.47
2022-12-06T16:20:33.284Z,74.02
2022-12-06T16:24:13.443Z,73.66
2022-12-06T16:27:17.873Z,74.68
2022-12-06T16:30:33.255Z,74.67
2022-12-06T16:33:37.092Z,75.19
2022-12-06T16:36:58.377Z,75.77
2022-12-06T16:40:03.601Z,75.11
2022-12-06T16:43:07.284Z,74.54
2022-12-06T16:46:27.891Z,75.02
2022-12-06T16:49:49.065Z,74.70
2022-12-06T16:52:53.443Z,75.33
2022-12-06T16:55:58.586Z,75.37
2022-12-06T16:59:02.714Z,75.31
2022-12-06T17:02:19.653Z,75.57
2022-12-06T17:05:25.807Z,76.04
2022-12-06T17:08:29.560Z,75.84
2022-12-06T17:11:54.208Z,75.57
2022-12-06T17:14:58.419Z,75.16
2022-12-06T17:18:02.343Z,74.74
2022-12-06T17:21:08.013Z,74.06
2022-12-06T17:24:12.376Z,74.01
2022-12-06T17:27:18.352Z,73.99
2022-12-06T17:30:23.592Z,74.53
2022-12-06T17:33:27.313Z,74.60
2022-12-06T17:36:31.523Z,74.59
2022-12-06T17:39:35.481Z,74.58
2022-12-06T17:42:58.097Z,74.64
2022-12-06T17:46:08.832Z,74.25
2022-12-06T17:49:15.523Z,74.86
2022-12-06T17:52:19.344Z,75.22
2022-12-06T17:55:23.136Z,74.91
2022-12-06T17:58:28.304Z,74.83
2022-12-06T18:01:51.270Z,74.73
2022-12-06T18:04:56.794Z,75.10
2022-12-06T18:08:00.739Z,75.51
2022-12-06T18:11:06.243Z,75.86
2022-12-06T18:14:13.043Z,76.43
2022-12-06T18:17:16.864Z,77.42
2022-12-06T18:20:20.616Z,76.83
2022-12-06T18:23:24.303Z,76.70
2022-12-06T18:26:28.614Z,77.03
2022-12-06T18:29:34.385Z,76.79
2022-12-06T18:32:38.143Z,76.64
2022-12-06T18:35:41.863Z,76.71
2022-12-06T18:38:46.133Z,76.62
2022-12-06T18:41:49.793Z,76.57
2022-12-06T18:44:58.278Z,76.56
2022-12-06T18:48:03.197Z,77.13
2022-12-06T18:51:07.883Z,77.86
2022-12-06T18:54:14.131Z,77.67
2022-12-06T18:57:18.053Z,78.02
2022-12-06T19:00:24.014Z,77.69
2022-12-06T19:03:27.754Z,78.07
2022-12-06T19:06:33.483Z,78.57
2022-12-06T19:09:37.253Z,77.59
2022-12-06T19:12:41.004Z,77.42
2022-12-06T19:15:46.083Z,78.20
2022-12-06T19:18:50.133Z,77.61
2022-12-06T19:21:55.793Z,77.54
2022-12-06T19:24:59.393Z,77.55
2022-12-06T19:28:03.273Z,77.52
2022-12-06T19:31:11.141Z,77.53
2022-12-06T19:34:16.927Z,77.97
2022-12-06T19:37:20.604Z,78.16
2022-12-06T19:40:24.394Z,78.37
2022-12-06T19:43:45.720Z,78.14
2022-12-06T19:46:50.983Z,77.92
2022-12-06T19:49:54.834Z,77.96
2022-12-06T19:52:58.444Z,78.46
2022-12-06T19:56:02.306Z,78.46
2022-12-06T19:59:11.868Z,78.84
2022-12-06T20:02:17.134Z,79.63
2022-12-06T20:05:20.787Z,79.48
2022-12-06T20:08:24.543Z,79.43
2022-12-06T20:11:47.020Z,78.87
2022-12-06T20:14:51.251Z,78.86
2022-12-06T20:17:56.447Z,78.65
2022-12-06T20:21:00.246Z,79.08
2022-12-06T20:24:04.171Z,78.96
2022-12-06T20:27:07.894Z,79.66
2022-12-06T20:30:12.734Z,79.76
2022-12-06T20:33:17.966Z,80.10
2022-12-06T20:36:23.303Z,79.88
2022-12-06T20:39:28.776Z,80.48
2022-12-06T20:42:33.663Z,79.55
2022-12-06T20:45:37.634Z,79.43
2022-12-06T20:48:43.894Z,79.20
2022-12-06T20:51:52.561Z,80.41
2022-12-06T20:54:56.874Z,80.01
2022-12-06T20:58:00.694Z,79.34
2022-12-06T21:01:05.025Z,79.32
2022-12-06T21:04:14.302Z,79.13
2022-12-06T21:07:17.995Z,79.37
2022-12-06T21:10:21.825Z,80.54
2022-12-06T21:13:26.565Z,80.60
2022-12-06T21:16:31.584Z,80.15
2022-12-06T21:19:36.803Z,80.84
2022-12-06T21:22:40.545Z,81.25
2022-12-06T21:25:44.163Z,81.78
2022-12-06T21:28:47.966Z,80.79
2022-12-06T21:31:51.693Z,80.73
2022-12-06T21:34:56.922Z,80.66
2022-12-06T21:38:00.491Z,80.95
2022-12-06T21:41:09.375Z,80.51
2022-12-06T21:44:13.070Z,80.97
2022-12-06T21:47:16.684Z,80.88
2022-12-06T21:50:21.857Z,82.30
2022-12-06T21:53:25.524Z,82.60
2022-12-06T21:56:31.133Z,84.88
2022-12-06T21:59:34.903Z,84.95
2022-12-06T22:02:38.679Z,83.36
2022-12-06T22:05:44.364Z,83.14
2022-12-06T22:08:49.756Z,82.28
2022-12-06T22:11:53.516Z,82.63
2022-12-06T22:14:57.245Z,81.99
2022-12-06T22:18:00.954Z,81.56
2022-12-06T22:21:08.024Z,81.44
2022-12-06T22:24:11.735Z,81.20
2022-12-06T22:27:15.424Z,82.27
2022-12-06T22:30:19.518Z,81.87
2022-12-06T22:33:23.223Z,81.58
2022-12-06T22:36:29.203Z,81.33
2022-12-06T22:39:32.781Z,82.30
2022-12-06T22:42:36.893Z,82.03
2022-12-06T22:45:40.488Z,82.00
2022-12-06T22:48:44.961Z,82.18
2022-12-06T22:51:50.070Z,82.17
2022-12-06T22:54:53.668Z,82.38
2022-12-06T22:57:57.171Z,83.12
2022-12-06T23:01:00.823Z,82.55
2022-12-06T23:04:06.807Z,82.60
2022-12-06T23:07:12.254Z,82.71
2022-12-06T23:10:16.296Z,83.04
2022-12-06T23:13:20.029Z,82.52
2022-12-06T23:16:25.494Z,82.44
2022-12-06T23:19:29.418Z,81.93
2022-12-06T23:22:34.805Z,81.70
2022-12-06T23:25:38.546Z,81.65
2022-12-06T23:28:42.295Z,81.31
2022-12-06T23:31:47.277Z,82.11
2022-12-06T23:34:51.086Z,82.00
2022-12-06T23:37:56.306Z,81.65
2022-12-06T23:41:04.067Z,81.20
2022-12-06T23:44:08.876Z,81.33
2022-12-06T23:47:12.752Z,81.48
2022-12-06T23:50:16.646Z,81.63
2022-12-06T23:53:21.867Z,81.54
2022-12-06T23:56:27.003Z,81.56
2022-12-06T23:59:30.653Z,81.53
